Time;durP1;ratioP1;P1;durP2;ratioP2;P2;SDS_P1;SDS_P2;PMS_P1;PMS_P2;Temp;Humidity;BMP_temperature;BMP_pressure;BME280_temperature;BME280_humidity;BME280_pressure;Samples;Min_cycle;Max_cycle;Signal;HPM_P1;HPM_P2
2022/07/07 00:00:29;;;;;;;13.33;12.13;;;16.20;99.90;;;;;;5092527;28;20185;-68
2022/07/07 00:02:57;;;;;;;15.80;14.90;;;16.20;99.90;;;;;;5092288;28;20298;-69
2022/07/07 00:05:24;;;;;;;14.90;13.80;;;16.20;99.90;;;;;;5091794;28;20191;-68
2022/07/07 00:07:53;;;;;;;13.70;12.60;;;16.20;99.90;;;;;;5092295;28;20191;-67
2022/07/07 00:10:20;;;;;;;12.87;11.20;;;16.10;99.90;;;;;;5073162;28;20683;-67
2022/07/07 00:12:48;;;;;;;14.77;13.83;;;16.00;99.90;;;;;;5091955;28;20190;-67
2022/07/07 00:15:16;;;;;;;16.83;15.93;;;16.00;99.90;;;;;;5072572;28;20643;-67
2022/07/07 00:17:44;;;;;;;26.97;25.47;;;15.90;99.90;;;;;;5083477;28;20636;-66
2022/07/07 00:20:11;;;;;;;42.90;40.60;;;15.70;99.90;;;;;;5059958;28;20251;-67
2022/07/07 00:22:38;;;;;;;67.93;64.33;;;15.80;99.90;;;;;;5088894;28;20191;-67
2022/07/07 00:25:07;;;;;;;74.40;70.60;;;15.80;99.90;;;;;;5092063;28;20209;-66
2022/07/07 00:27:34;;;;;;;73.80;69.90;;;15.80;99.90;;;;;;5091738;28;20746;-67
2022/07/07 00:30:02;;;;;;;85.60;81.17;;;15.80;99.90;;;;;;5074015;28;20226;-67
2022/07/07 00:32:29;;;;;;;73.40;69.60;;;15.80;99.90;;;;;;5091539;28;20231;-68
2022/07/07 00:34:56;;;;;;;83.23;78.77;;;15.80;99.90;;;;;;5092038;28;20618;-68
2022/07/07 00:37:24;;;;;;;82.37;78.27;;;16.00;99.90;;;;;;5091667;28;20676;-67
2022/07/07 00:39:51;;;;;;;55.27;52.47;;;16.20;99.90;;;;;;5092155;28;20647;-66
2022/07/07 00:42:19;;;;;;;47.10;44.70;;;16.30;99.90;;;;;;5091525;28;20217;-68
2022/07/07 00:44:47;;;;;;;27.13;25.67;;;16.40;99.90;;;;;;5091693;28;20712;-68
2022/07/07 00:47:15;;;;;;;16.07;15.17;;;16.60;99.90;;;;;;5091438;28;20237;-68
2022/07/07 00:49:42;;;;;;;13.90;13.00;;;16.70;99.90;;;;;;5091805;28;20247;-68
2022/07/07 00:52:10;;;;;;;7.70;7.07;;;16.70;99.90;;;;;;5091091;28;20187;-67
2022/07/07 00:54:38;;;;;;;8.37;7.57;;;16.60;99.90;;;;;;5072383;28;20202;-66
2022/07/07 00:57:06;;;;;;;10.90;9.80;;;16.60;99.90;;;;;;5091175;28;20184;-67
2022/07/07 00:59:37;;;;;;;9.33;8.67;;;16.80;99.90;;;;;;5089996;28;20175;-67
2022/07/07 01:02:04;;;;;;;6.70;5.60;;;16.80;99.90;;;;;;5091377;28;20194;-67
2022/07/07 01:04:31;;;;;;;5.67;5.13;;;16.80;99.90;;;;;;5091718;28;20190;-67
2022/07/07 01:07:02;;;;;;;6.10;4.30;;;16.90;99.90;;;;;;5091465;28;20191;-67
2022/07/07 01:09:30;;;;;;;3.60;3.30;;;17.00;99.90;;;;;;5091511;28;20216;-67
2022/07/07 01:11:58;;;;;;;7.23;4.30;;;16.90;99.90;;;;;;5091670;28;20183;-67
2022/07/07 01:14:26;;;;;;;5.07;4.57;;;17.00;99.90;;;;;;5091583;28;20194;-67
2022/07/07 01:16:54;;;;;;;3.67;3.37;;;17.10;99.90;;;;;;5089904;28;20183;-67
2022/07/07 01:19:23;;;;;;;7.30;2.70;;;17.10;99.90;;;;;;5075579;28;20194;-67
2022/07/07 01:21:58;;;;;;;5.57;3.40;;;17.10;99.90;;;;;;5075295;28;20241;-67
2022/07/07 01:24:27;;;;;;;4.53;2.00;;;17.20;99.90;;;;;;5075484;28;20221;-66
2022/07/07 01:27:24;;;;;;;5.63;1.83;;;17.30;99.90;;;;;;5074619;28;20226;-67
2022/07/07 01:29:54;;;;;;;3.27;1.77;;;17.20;99.90;;;;;;5043539;28;20226;-67
2022/07/07 01:32:23;;;;;;;4.13;1.77;;;17.30;99.90;;;;;;5075923;28;20211;-67
2022/07/07 01:34:51;;;;;;;4.03;1.90;;;17.40;99.90;;;;;;5077522;28;20194;-68
2022/07/07 01:37:20;;;;;;;4.57;1.50;;;17.50;99.90;;;;;;5094870;28;20187;-67
2022/07/07 01:39:48;;;;;;;6.17;1.27;;;17.50;99.90;;;;;;5095097;28;20959;-67
2022/07/07 01:42:16;;;;;;;5.67;1.80;;;17.60;99.90;;;;;;5094572;28;20179;-67
2022/07/07 01:44:44;;;;;;;5.20;1.50;;;17.70;99.90;;;;;;5095010;28;20228;-67
2022/07/07 01:47:13;;;;;;;2.83;1.30;;;18.00;99.90;;;;;;5095070;28;20183;-67
2022/07/07 01:49:40;;;;;;;4.43;1.80;;;18.60;99.90;;;;;;5094941;28;20294;-66
2022/07/07 01:52:08;;;;;;;4.83;1.00;;;18.80;99.90;;;;;;5093937;28;20183;-66
2022/07/07 01:54:37;;;;;;;2.57;0.77;;;19.10;99.90;;;;;;5076379;28;20210;-66
2022/07/07 01:57:06;;;;;;;5.00;0.90;;;18.90;99.90;;;;;;5094894;28;20182;-66
2022/07/07 01:59:34;;;;;;;3.07;1.10;;;18.90;99.90;;;;;;5094652;28;20188;-66
2022/07/07 02:02:01;;;;;;;4.13;0.90;;;19.10;99.90;;;;;;5094771;28;20186;-66
2022/07/07 02:04:29;;;;;;;3.03;0.90;;;18.80;99.90;;;;;;5094524;28;20197;-68
2022/07/07 02:06:56;;;;;;;2.30;0.63;;;18.90;99.90;;;;;;5094454;28;20195;-67
2022/07/07 02:09:24;;;;;;;4.17;1.40;;;19.20;99.90;;;;;;5076219;28;20227;-67
2022/07/07 02:11:51;;;;;;;3.00;0.90;;;18.90;99.90;;;;;;5094139;28;20253;-67
2022/07/07 02:14:18;;;;;;;2.20;0.77;;;19.00;99.90;;;;;;5094414;28;20212;-67
2022/07/07 02:16:46;;;;;;;5.60;0.87;;;19.20;99.90;;;;;;5094409;28;20195;-67
2022/07/07 02:19:13;;;;;;;4.23;1.00;;;19.20;99.90;;;;;;5094550;28;20554;-67
2022/07/07 02:21:41;;;;;;;5.47;0.77;;;19.00;99.90;;;;;;5075912;28;20599;-67
2022/07/07 02:24:08;;;;;;;3.60;0.87;;;18.90;99.90;;;;;;5092109;28;20675;-67
2022/07/07 02:26:35;;;;;;;2.87;1.00;;;18.90;99.90;;;;;;5094010;28;20211;-67
2022/07/07 02:29:04;;;;;;;2.70;0.90;;;19.10;99.90;;;;;;5093065;28;20229;-67
2022/07/07 02:31:31;;;;;;;2.87;0.87;;;19.00;99.90;;;;;;5094115;28;20182;-67
2022/07/07 02:33:59;;;;;;;2.90;0.67;;;18.90;99.90;;;;;;5093609;28;20191;-67
2022/07/07 02:36:26;;;;;;;3.27;1.00;;;18.80;99.90;;;;;;5094203;28;20179;-67
2022/07/07 02:38:54;;;;;;;2.73;0.90;;;18.80;99.90;;;;;;5093989;28;20648;-67
2022/07/07 02:41:21;;;;;;;2.53;0.70;;;18.80;99.90;;;;;;5093980;28;20197;-66
2022/07/07 02:43:48;;;;;;;5.37;1.20;;;18.80;99.90;;;;;;5093723;28;20197;-68
2022/07/07 02:46:16;;;;;;;4.23;1.07;;;18.60;99.90;;;;;;5093999;28;20569;-68
2022/07/07 02:48:43;;;;;;;5.13;1.10;;;18.70;99.90;;;;;;5088453;28;20209;-67
2022/07/07 02:51:10;;;;;;;3.93;0.87;;;18.70;99.90;;;;;;5085853;28;20332;-68
2022/07/07 02:53:38;;;;;;;2.47;0.83;;;18.70;99.90;;;;;;5091722;28;20234;-66
2022/07/07 02:56:07;;;;;;;3.77;0.97;;;18.70;99.90;;;;;;5094174;28;20587;-65
2022/07/07 02:58:35;;;;;;;3.60;1.20;;;18.70;99.90;;;;;;5081817;28;20180;-65
2022/07/07 03:01:02;;;;;;;3.53;0.80;;;18.70;99.90;;;;;;5074225;28;20529;-68
2022/07/07 03:03:30;;;;;;;3.43;1.10;;;18.50;99.90;;;;;;5093689;28;20178;-66
2022/07/07 03:05:57;;;;;;;3.73;0.93;;;18.50;99.90;;;;;;5083684;28;20183;-66
2022/07/07 03:08:25;;;;;;;2.37;0.90;;;18.60;99.90;;;;;;5094266;28;20178;-67
2022/07/07 03:10:52;;;;;;;4.80;0.90;;;18.50;99.90;;;;;;5094342;28;20207;-66
2022/07/07 03:13:19;;;;;;;6.03;1.17;;;18.50;99.90;;;;;;5094733;28;20171;-67
2022/07/07 03:15:46;;;;;;;4.50;1.13;;;18.50;99.90;;;;;;5092208;28;20197;-65
2022/07/07 03:18:14;;;;;;;4.07;0.90;;;18.50;99.90;;;;;;5081612;28;20179;-68
2022/07/07 03:20:41;;;;;;;4.77;1.10;;;18.50;99.90;;;;;;5074425;28;20263;-68
2022/07/07 03:23:08;;;;;;;4.87;1.23;;;18.70;99.90;;;;;;5074528;28;20176;-68
2022/07/07 03:25:36;;;;;;;3.47;1.03;;;18.50;99.90;;;;;;5074437;28;20176;-68
2022/07/07 03:28:03;;;;;;;5.87;1.03;;;18.40;99.90;;;;;;5074120;28;20269;-67
2022/07/07 03:30:31;;;;;;;3.47;1.17;;;18.40;99.90;;;;;;5074371;28;20215;-66
2022/07/07 03:32:58;;;;;;;3.10;0.90;;;18.50;99.90;;;;;;5074088;28;20180;-66
2022/07/07 03:35:25;;;;;;;4.17;0.93;;;18.50;99.90;;;;;;5074089;28;20179;-67
2022/07/07 03:37:52;;;;;;;3.97;1.03;;;18.50;99.90;;;;;;5074049;28;20180;-67
2022/07/07 03:40:20;;;;;;;2.40;0.70;;;18.50;99.90;;;;;;5074219;28;20180;-67
2022/07/07 03:42:47;;;;;;;4.73;0.87;;;18.60;99.90;;;;;;5074009;28;20179;-67
2022/07/07 03:45:15;;;;;;;4.77;0.70;;;18.70;99.90;;;;;;5074211;28;20168;-68
2022/07/07 03:47:42;;;;;;;4.67;1.13;;;18.50;99.90;;;;;;5073932;28;20168;-67
2022/07/07 03:50:09;;;;;;;6.50;1.10;;;18.50;99.90;;;;;;5073861;28;20215;-68
2022/07/07 03:52:37;;;;;;;3.70;0.80;;;18.50;99.90;;;;;;5073948;28;20265;-67
2022/07/07 03:55:05;;;;;;;8.40;1.43;;;18.60;99.90;;;;;;5074069;28;20618;-67
2022/07/07 03:57:33;;;;;;;2.40;0.70;;;18.50;99.90;;;;;;5055634;28;20172;-68
2022/07/07 04:00:00;;;;;;;3.37;1.00;;;18.80;99.90;;;;;;5073344;28;20556;-68
2022/07/07 04:02:27;;;;;;;1.50;0.50;;;19.30;99.90;;;;;;5073480;28;20222;-68
2022/07/07 04:04:55;;;;;;;4.10;0.87;;;19.50;99.90;;;;;;5073317;28;20172;-68
2022/07/07 04:07:22;;;;;;;1.23;0.53;;;19.70;99.90;;;;;;5073565;28;20656;-67
2022/07/07 04:09:49;;;;;;;1.00;0.57;;;19.70;99.90;;;;;;5073615;28;20207;-68
2022/07/07 04:12:17;;;;;;;0.83;0.50;;;19.40;99.90;;;;;;5073407;28;20180;-68
2022/07/07 04:14:44;;;;;;;4.63;0.63;;;19.30;99.90;;;;;;5073399;28;20712;-68
2022/07/07 04:17:11;;;;;;;3.03;0.70;;;19.00;99.90;;;;;;5073362;28;20172;-68
2022/07/07 04:19:39;;;;;;;1.33;0.60;;;18.80;99.90;;;;;;5073395;28;20651;-68
2022/07/07 04:22:07;;;;;;;1.87;0.50;;;18.90;99.90;;;;;;5073269;28;20218;-68
2022/07/07 04:24:34;;;;;;;1.53;0.60;;;18.70;99.90;;;;;;5073567;28;20178;-67
2022/07/07 04:27:02;;;;;;;3.17;0.50;;;18.90;99.90;;;;;;5072973;28;20227;-67
2022/07/07 04:29:30;;;;;;;2.10;0.57;;;18.90;99.90;;;;;;5073305;28;20239;-68
2022/07/07 04:31:57;;;;;;;0.83;0.60;;;18.90;99.90;;;;;;5073159;28;20176;-68
2022/07/07 04:34:24;;;;;;;3.17;0.53;;;19.00;99.90;;;;;;5073380;28;20180;-68
2022/07/07 04:36:52;;;;;;;1.87;0.70;;;19.00;99.90;;;;;;5072967;28;20175;-68
2022/07/07 04:39:19;;;;;;;2.30;0.70;;;19.10;99.90;;;;;;5073328;28;20183;-67
2022/07/07 04:41:47;;;;;;;1.30;0.57;;;19.40;99.90;;;;;;5073031;28;20223;-67
2022/07/07 04:44:14;;;;;;;1.27;0.43;;;19.30;99.90;;;;;;5072969;28;20539;-67
2022/07/07 04:46:41;;;;;;;1.77;0.50;;;19.20;99.90;;;;;;5073112;28;20164;-67
2022/07/07 04:49:09;;;;;;;1.83;0.80;;;19.10;99.90;;;;;;5073259;28;20199;-67
2022/07/07 04:51:37;;;;;;;1.27;0.60;;;18.90;99.90;;;;;;5072841;28;20179;-68
2022/07/07 04:54:05;;;;;;;0.93;0.60;;;18.90;99.90;;;;;;5073086;28;20355;-68
2022/07/07 04:56:32;;;;;;;1.63;0.77;;;18.80;99.90;;;;;;5072779;28;20179;-68
2022/07/07 04:58:59;;;;;;;1.07;0.50;;;18.80;99.90;;;;;;5072961;28;20172;-68
2022/07/07 05:01:27;;;;;;;1.10;0.50;;;18.90;99.90;;;;;;5054063;28;20187;-68
2022/07/07 05:03:54;;;;;;;2.77;0.60;;;18.90;99.90;;;;;;5054794;28;20236;-68
2022/07/07 05:06:21;;;;;;;2.10;0.60;;;19.00;99.90;;;;;;5072952;28;20548;-68
2022/07/07 05:08:49;;;;;;;3.10;0.90;;;19.00;99.90;;;;;;5072677;28;20192;-68
2022/07/07 05:11:16;;;;;;;2.10;0.60;;;18.80;99.90;;;;;;5072877;28;20662;-68
2022/07/07 05:13:43;;;;;;;2.00;0.40;;;18.60;99.90;;;;;;5072823;28;20536;-68
2022/07/07 05:16:11;;;;;;;1.50;0.50;;;18.60;99.90;;;;;;5072877;28;20172;-68
2022/07/07 05:18:39;;;;;;;1.63;0.43;;;18.60;99.90;;;;;;5072821;28;20176;-68
2022/07/07 05:21:06;;;;;;;1.90;0.60;;;18.40;99.90;;;;;;5072407;28;20284;-67
2022/07/07 05:23:33;;;;;;;2.70;0.93;;;18.20;99.90;;;;;;5072675;28;20176;-67
2022/07/07 05:26:01;;;;;;;43.80;23.17;;;18.20;99.90;;;;;;5072678;28;20534;-67
2022/07/07 05:28:30;;;;;;;2.40;0.80;;;18.00;99.90;;;;;;5072077;28;20604;-68
2022/07/07 05:30:57;;;;;;;3.00;1.00;;;17.90;99.90;;;;;;5072652;28;20180;-67
2022/07/07 05:33:25;;;;;;;3.50;0.67;;;17.90;99.90;;;;;;5072425;28;20252;-67
2022/07/07 05:35:52;;;;;;;1.43;0.90;;;17.80;99.90;;;;;;5072386;28;20203;-67
2022/07/07 05:38:19;;;;;;;2.37;0.70;;;17.80;99.90;;;;;;5087559;28;20636;-66
2022/07/07 05:40:47;;;;;;;3.87;1.33;;;17.80;99.90;;;;;;5092000;28;20179;-66
2022/07/07 05:43:14;;;;;;;3.70;1.07;;;17.80;99.90;;;;;;5092624;28;20175;-66
2022/07/07 05:45:41;;;;;;;4.57;1.60;;;17.80;99.90;;;;;;5092903;28;20254;-66
2022/07/07 05:48:08;;;;;;;5.90;1.70;;;17.60;99.90;;;;;;5074851;28;20184;-65
2022/07/07 05:50:36;;;;;;;6.10;1.67;;;17.50;99.90;;;;;;5081395;28;20233;-65
2022/07/07 05:53:03;;;;;;;6.90;2.07;;;17.40;99.90;;;;;;5092282;28;20179;-65
2022/07/07 05:55:31;;;;;;;4.40;1.70;;;17.30;99.90;;;;;;5092500;28;20177;-68
2022/07/07 05:57:58;;;;;;;9.33;1.73;;;17.10;99.90;;;;;;5093211;28;20175;-67
2022/07/07 06:00:27;;;;;;;6.87;1.37;;;17.10;99.90;;;;;;5092237;28;20175;-64
2022/07/07 06:02:55;;;;;;;7.97;2.20;;;17.00;99.90;;;;;;5052346;28;20176;-67
2022/07/07 06:05:22;;;;;;;8.17;2.23;;;16.90;99.90;;;;;;5055008;28;20322;-67
2022/07/07 06:07:50;;;;;;;8.03;2.20;;;16.70;99.90;;;;;;5055834;28;20184;-67
2022/07/07 06:10:17;;;;;;;5.80;2.23;;;16.50;99.90;;;;;;5062164;28;20216;-68
2022/07/07 06:12:45;;;;;;;12.13;2.60;;;16.40;99.90;;;;;;5072519;28;20187;-67
2022/07/07 06:15:14;;;;;;;7.70;2.43;;;16.30;99.90;;;;;;5078003;28;20266;-67
2022/07/07 06:17:42;;;;;;;8.87;2.00;;;16.20;99.90;;;;;;5077711;28;20206;-67
2022/07/07 06:20:10;;;;;;;6.03;2.20;;;16.20;99.90;;;;;;5093698;28;20179;-65
2022/07/07 06:22:38;;;;;;;7.03;1.87;;;16.10;99.90;;;;;;5094727;28;20266;-67
2022/07/07 06:25:08;;;;;;;2.77;1.47;;;15.90;99.90;;;;;;5095844;28;20513;-67
2022/07/07 06:27:37;;;;;;;6.43;1.87;;;15.90;99.90;;;;;;5095506;28;20707;-67
2022/07/07 06:30:06;;;;;;;9.63;1.97;;;15.70;99.90;;;;;;5095383;28;20203;-66
2022/07/07 06:32:33;;;;;;;5.03;2.37;;;15.70;99.90;;;;;;5095358;28;20543;-66
2022/07/07 06:35:01;;;;;;;7.50;2.77;;;15.60;99.90;;;;;;5095633;28;20171;-66
2022/07/07 06:37:29;;;;;;;6.40;3.20;;;15.50;99.90;;;;;;5095477;28;20171;-66
2022/07/07 06:39:56;;;;;;;6.30;2.70;;;15.50;99.90;;;;;;5095584;28;20184;-67
2022/07/07 06:42:24;;;;;;;7.50;3.20;;;15.30;99.90;;;;;;5095013;28;20197;-65
2022/07/07 06:44:52;;;;;;;8.17;2.87;;;15.30;99.90;;;;;;5095204;28;20304;-66
2022/07/07 06:47:19;;;;;;;7.57;3.60;;;15.10;99.90;;;;;;5076778;28;20593;-66
2022/07/07 06:49:47;;;;;;;7.87;3.93;;;15.00;99.90;;;;;;5093944;28;20771;-67
2022/07/07 06:52:15;;;;;;;8.30;4.20;;;14.90;99.90;;;;;;5095167;28;20233;-66
2022/07/07 06:54:42;;;;;;;7.50;4.17;;;14.90;99.90;;;;;;5094870;28;20679;-66
2022/07/07 06:57:10;;;;;;;7.63;4.30;;;14.90;99.90;;;;;;5095195;28;20167;-66
2022/07/07 06:59:38;;;;;;;5.60;4.53;;;14.80;99.90;;;;;;5095098;28;20268;-66
2022/07/07 07:02:06;;;;;;;6.93;5.17;;;14.80;99.90;;;;;;5094749;28;20184;-67
2022/07/07 07:04:34;;;;;;;8.37;5.50;;;14.70;99.90;;;;;;5095216;28;20186;-66
2022/07/07 07:07:01;;;;;;;10.23;5.60;;;14.60;99.90;;;;;;5094817;28;20175;-66
2022/07/07 07:09:29;;;;;;;9.13;5.53;;;14.70;99.90;;;;;;5094818;28;20685;-66
2022/07/07 07:11:57;;;;;;;5.90;5.30;;;14.50;99.90;;;;;;5094817;28;20718;-66
2022/07/07 07:14:24;;;;;;;10.77;5.80;;;14.50;99.90;;;;;;5092156;28;20251;-68
2022/07/07 07:16:52;;;;;;;9.13;6.13;;;14.40;99.90;;;;;;5078595;28;20657;-66
2022/07/07 07:19:20;;;;;;;13.73;6.53;;;14.30;99.90;;;;;;5073470;28;20726;-67
2022/07/07 07:21:48;;;;;;;6.80;6.07;;;14.20;99.90;;;;;;5090072;28;20257;-66
2022/07/07 07:24:16;;;;;;;9.23;6.37;;;14.20;99.90;;;;;;5093394;28;20227;-66
2022/07/07 07:26:44;;;;;;;6.80;5.90;;;14.10;99.90;;;;;;5092820;28;20230;-68
2022/07/07 07:29:11;;;;;;;9.73;5.80;;;14.10;99.90;;;;;;5092802;28;20289;-67
2022/07/07 07:31:39;;;;;;;7.30;6.60;;;14.00;99.90;;;;;;5093399;28;20178;-67
2022/07/07 07:34:08;;;;;;;10.27;5.63;;;13.90;99.90;;;;;;5092607;28;20185;-68
2022/07/07 07:36:35;;;;;;;8.73;6.20;;;13.80;99.90;;;;;;5093024;28;20256;-66
2022/07/07 07:39:03;;;;;;;9.90;5.97;;;13.80;99.90;;;;;;5092884;28;20190;-67
2022/07/07 07:41:32;;;;;;;9.90;5.50;;;13.70;99.90;;;;;;5093271;28;20178;-66
2022/07/07 07:44:00;;;;;;;7.13;5.30;;;13.80;99.90;;;;;;5093216;28;20606;-64
2022/07/07 07:46:28;;;;;;;5.30;4.77;;;13.70;99.90;;;;;;5093125;28;20530;-66
2022/07/07 07:48:55;;;;;;;6.33;5.67;;;13.60;99.90;;;;;;5092798;28;20214;-67
2022/07/07 07:51:23;;;;;;;6.87;5.00;;;13.50;99.90;;;;;;5092610;28;20581;-67
2022/07/07 07:53:51;;;;;;;6.30;5.30;;;13.30;99.90;;;;;;5092575;28;20656;-65
2022/07/07 07:56:18;;;;;;;4.80;4.10;;;13.20;99.90;;;;;;5092798;28;20205;-66
2022/07/07 07:58:46;;;;;;;6.07;5.13;;;13.20;99.90;;;;;;5092787;28;20187;-67
2022/07/07 08:01:14;;;;;;;14.53;5.40;;;13.10;99.90;;;;;;5092429;28;20675;-65
2022/07/07 08:03:42;;;;;;;6.13;5.50;;;13.10;99.90;;;;;;5092645;28;20186;-66
2022/07/07 08:06:09;;;;;;;5.13;4.63;;;13.10;99.90;;;;;;5083041;28;20265;-64
2022/07/07 08:08:37;;;;;;;5.37;4.83;;;13.20;99.90;;;;;;5088727;28;20301;-66
2022/07/07 08:11:05;;;;;;;5.57;4.70;;;13.10;99.90;;;;;;5091814;28;20671;-66
2022/07/07 08:13:33;;;;;;;6.47;4.67;;;13.10;99.90;;;;;;5092261;28;20591;-67
2022/07/07 08:16:00;;;;;;;5.70;5.20;;;13.00;99.90;;;;;;5060422;28;20553;-65
2022/07/07 08:18:29;;;;;;;6.33;5.73;;;12.90;99.90;;;;;;5071806;28;20167;-63
2022/07/07 08:20:57;;;;;;;8.10;5.80;;;12.90;99.90;;;;;;5072753;28;20198;-64
2022/07/07 08:23:25;;;;;;;6.40;5.87;;;13.00;99.90;;;;;;5071652;28;20175;-64
2022/07/07 08:25:53;;;;;;;5.40;5.00;;;12.90;99.90;;;;;;5075842;28;20524;-66
2022/07/07 08:28:20;;;;;;;5.70;5.20;;;12.90;99.90;;;;;;5077790;28;20218;-67
2022/07/07 08:30:48;;;;;;;5.17;4.80;;;12.90;99.90;;;;;;5075162;28;20549;-66
2022/07/07 08:33:16;;;;;;;9.13;7.53;;;12.90;99.90;;;;;;5092368;28;20233;-66
2022/07/07 08:35:44;;;;;;;7.57;7.00;;;12.70;99.90;;;;;;5074312;28;20266;-65
2022/07/07 08:38:11;;;;;;;7.00;6.30;;;12.60;99.90;;;;;;5077224;28;20225;-66
2022/07/07 08:40:39;;;;;;;7.37;6.70;;;12.70;99.90;;;;;;5070694;28;20179;-66
2022/07/07 08:43:07;;;;;;;7.73;6.13;;;12.50;99.90;;;;;;5072076;28;20178;-66
2022/07/07 08:45:35;;;;;;;6.23;5.70;;;12.50;99.90;;;;;;5073261;28;20176;-65
2022/07/07 08:48:02;;;;;;;5.23;4.83;;;12.60;99.90;;;;;;5092047;28;20202;-66
2022/07/07 08:50:31;;;;;;;5.70;4.70;;;12.70;99.90;;;;;;5073252;28;20270;-65
2022/07/07 08:53:01;;;;;;;10.17;6.57;;;12.70;99.90;;;;;;5092155;28;20715;-63
2022/07/07 08:55:35;;;;;;;6.47;5.83;;;12.60;99.90;;;;;;5078494;28;20269;-64
2022/07/07 08:58:04;;;;;;;6.13;5.53;;;12.50;99.90;;;;;;5068446;28;20539;-67
2022/07/07 09:00:32;;;;;;;6.40;5.80;;;12.60;99.90;;;;;;5073233;28;20655;-63
2022/07/07 09:03:03;;;;;;;5.80;5.40;;;12.50;99.90;;;;;;5071228;28;20194;-67
2022/07/07 09:05:37;;;;;;;6.63;6.07;;;12.40;99.90;;;;;;5072412;28;20186;-64
2022/07/07 09:08:25;;;;;;;9.77;6.10;;;12.40;99.90;;;;;;5071340;28;20191;-65
2022/07/07 09:10:54;;;;;;;7.10;6.50;;;12.30;99.90;;;;;;5055611;28;20603;-65
2022/07/07 09:13:29;;;;;;;7.70;6.90;;;12.40;99.90;;;;;;5083960;28;20197;-67
2022/07/07 09:16:15;;;;;;;8.93;7.03;;;12.20;99.90;;;;;;5091902;28;20340;-65
2022/07/07 09:18:45;;;;;;;9.63;7.23;;;12.00;99.90;;;;;;5091448;28;20179;-66
2022/07/07 09:21:30;;;;;;;8.70;7.83;;;11.90;99.90;;;;;;5092123;28;20227;-70
2022/07/07 09:24:00;;;;;;;9.13;8.23;;;11.80;99.90;;;;;;5091989;28;20181;-65
2022/07/07 09:26:37;;;;;;;8.10;7.50;;;11.60;99.90;;;;;;5091698;28;20224;-65
2022/07/07 09:29:10;;;;;;;6.97;6.47;;;11.60;99.90;;;;;;5091518;28;20208;-66
2022/07/07 09:31:58;;;;;;;7.87;7.17;;;11.40;99.90;;;;;;5091792;28;20190;-67
2022/07/07 09:34:28;;;;;;;7.20;6.70;;;11.20;99.90;;;;;;5091436;28;20182;-65
2022/07/07 09:39:55;;;;;;;8.43;7.10;;;11.20;99.90;;;;;;5094898;28;20205;-68
2022/07/07 09:42:29;;;;;;;11.87;7.53;;;11.10;99.90;;;;;;5095655;28;20969;-67
2022/07/07 09:45:04;;;;;;;7.53;6.87;;;10.90;99.90;;;;;;5095563;28;20182;-65
2022/07/07 09:47:35;;;;;;;7.50;6.90;;;10.90;99.90;;;;;;5095284;28;20215;-64
2022/07/07 09:50:06;;;;;;;9.33;7.27;;;10.80;99.90;;;;;;5095190;28;20663;-66
2022/07/07 09:52:36;;;;;;;8.53;7.70;;;10.80;99.90;;;;;;5095373;28;20174;-67
2022/07/07 09:55:11;;;;;;;9.03;8.10;;;10.80;99.90;;;;;;5095586;28;20203;-65
2022/07/07 09:57:40;;;;;;;9.07;8.23;;;10.80;99.90;;;;;;5094990;28;20673;-66
2022/07/07 10:00:09;;;;;;;9.73;8.80;;;10.60;99.90;;;;;;5095033;28;20219;-67
2022/07/07 10:02:37;;;;;;;10.13;9.17;;;10.70;99.90;;;;;;5093763;28;20177;-65
2022/07/07 10:05:09;;;;;;;12.53;11.27;;;10.70;99.90;;;;;;5078918;28;20256;-66
2022/07/07 10:07:37;;;;;;;12.73;11.30;;;10.80;99.90;;;;;;5095356;28;20183;-63
2022/07/07 10:10:08;;;;;;;17.43;14.40;;;10.70;99.90;;;;;;5094647;28;20226;-64
2022/07/07 10:12:49;;;;;;;17.33;15.60;;;10.70;99.90;;;;;;5090673;28;20184;-67
2022/07/07 10:15:19;;;;;;;14.77;13.37;;;10.60;99.90;;;;;;5095552;28;20544;-68
2022/07/07 10:17:48;;;;;;;12.67;11.47;;;10.60;99.90;;;;;;5094776;28;20544;-68
2022/07/07 10:20:16;;;;;;;11.87;10.70;;;10.70;99.90;;;;;;5094630;28;20187;-66
2022/07/07 10:22:45;;;;;;;11.00;10.20;;;10.70;99.90;;;;;;5094869;28;20172;-67
2022/07/07 10:25:14;;;;;;;11.90;10.80;;;10.70;99.90;;;;;;5094862;28;20173;-65
2022/07/07 10:27:42;;;;;;;11.80;10.70;;;10.70;99.90;;;;;;5094099;28;20226;-66
2022/07/07 10:30:27;;;;;;;11.53;10.17;;;10.60;99.90;;;;;;5094557;28;20219;-67
2022/07/07 10:32:55;;;;;;;11.70;9.30;;;10.60;99.90;;;;;;5094322;28;20184;-67
2022/07/07 10:35:25;;;;;;;8.77;8.07;;;10.60;99.90;;;;;;5094268;28;20204;-66
2022/07/07 10:37:57;;;;;;;5.40;4.90;;;10.60;99.90;;;;;;5094356;28;20258;-66
2022/07/07 10:40:30;;;;;;;3.87;3.23;;;10.70;99.90;;;;;;5094635;28;20179;-65
2022/07/07 10:43:29;;;;;;;3.17;2.87;;;10.80;99.90;;;;;;5094495;28;20657;-67
2022/07/07 10:45:58;;;;;;;2.30;2.13;;;11.00;99.90;;;;;;5094251;28;20175;-67
2022/07/07 10:48:47;;;;;;;1.93;1.83;;;11.10;99.90;;;;;;5094884;28;20203;-69
2022/07/07 10:51:19;;;;;;;1.83;1.73;;;11.10;99.90;;;;;;5075494;28;20753;-65
2022/07/07 10:53:59;;;;;;;3.07;1.80;;;11.10;99.90;;;;;;5094349;28;20188;-67
2022/07/07 10:56:27;;;;;;;2.10;1.90;;;11.10;99.90;;;;;;5053934;28;20190;-67
2022/07/07 10:58:59;;;;;;;1.93;1.83;;;11.00;99.90;;;;;;5053868;28;20182;-66
2022/07/07 11:01:29;;;;;;;2.80;2.10;;;10.90;99.90;;;;;;5063112;28;20611;-66
2022/07/07 11:03:58;;;;;;;3.60;2.30;;;10.70;99.90;;;;;;5094141;28;20270;-67
2022/07/07 11:06:26;;;;;;;3.03;2.20;;;10.40;99.90;;;;;;5094887;28;20200;-67
2022/07/07 11:08:59;;;;;;;5.33;2.80;;;10.30;99.90;;;;;;5094759;28;20203;-67
2022/07/07 11:11:28;;;;;;;3.07;2.70;;;10.00;99.90;;;;;;5094137;28;20202;-67
2022/07/07 11:14:11;;;;;;;2.80;2.60;;;9.90;99.90;;;;;;5094825;28;20168;-67
2022/07/07 11:16:39;;;;;;;3.50;2.93;;;9.70;99.90;;;;;;5093091;28;20181;-66
2022/07/07 11:19:07;;;;;;;5.83;3.63;;;9.60;99.90;;;;;;5093550;28;20186;-68
2022/07/07 11:21:41;;;;;;;4.23;2.20;;;9.50;99.90;;;;;;5093354;28;20183;-66
2022/07/07 11:24:23;;;;;;;2.33;2.13;;;9.40;99.90;;;;;;5093720;28;20185;-65
2022/07/07 11:27:27;;;;;;;2.97;2.60;;;9.30;99.90;;;;;;5093377;28;20602;-65
2022/07/07 11:29:58;;;;;;;9.03;4.50;;;9.20;99.90;;;;;;5075023;28;20585;-66
2022/07/07 11:32:39;;;;;;;6.97;4.63;;;9.10;99.90;;;;;;5053312;28;20173;-66
2022/07/07 11:35:08;;;;;;;5.27;3.73;;;9.00;99.90;;;;;;5055065;28;20176;-66
2022/07/07 11:37:38;;;;;;;5.80;3.50;;;8.90;99.90;;;;;;5093446;28;20203;-65
2022/07/07 11:40:19;;;;;;;3.90;3.30;;;8.80;99.90;;;;;;5092786;28;20179;-66
2022/07/07 11:42:47;;;;;;;5.17;3.23;;;8.70;99.90;;;;;;5093328;28;20171;-66
2022/07/07 11:45:26;;;;;;;4.90;4.23;;;8.70;99.90;;;;;;5093156;28;20262;-67
2022/07/07 11:47:57;;;;;;;4.70;4.20;;;8.90;99.90;;;;;;5093166;28;20184;-65
2022/07/07 11:50:28;;;;;;;8.77;4.23;;;8.90;99.90;;;;;;5084313;28;20320;-65
2022/07/07 11:53:00;;;;;;;5.43;4.60;;;8.90;99.90;;;;;;5093043;28;20717;-64
2022/07/07 11:55:29;;;;;;;4.50;3.90;;;9.00;99.90;;;;;;5074974;28;20234;-65
2022/07/07 11:58:03;;;;;;;5.47;4.53;;;9.10;99.90;;;;;;5092947;28;20182;-64
2022/07/07 12:00:33;;;;;;;9.40;6.07;;;9.10;99.90;;;;;;5083453;28;20199;-64
2022/07/07 12:03:04;;;;;;;6.23;5.00;;;9.20;99.90;;;;;;5091238;28;20182;-65
2022/07/07 12:05:36;;;;;;;6.40;3.97;;;9.10;99.90;;;;;;5088158;28;20186;-64
2022/07/07 12:08:07;;;;;;;5.97;4.47;;;8.90;99.90;;;;;;5072536;28;20179;-67
2022/07/07 12:10:39;;;;;;;7.57;4.57;;;8.90;99.90;;;;;;5072516;28;20233;-65
2022/07/07 12:13:13;;;;;;;7.33;4.63;;;8.70;99.90;;;;;;5066893;28;20190;-64
2022/07/07 12:15:47;;;;;;;5.37;4.87;;;8.60;99.90;;;;;;5074173;28;20187;-66
2022/07/07 12:18:22;;;;;;;4.43;4.03;;;8.50;99.90;;;;;;5092681;28;20174;-67
2022/07/07 12:21:02;;;;;;;5.80;4.57;;;8.40;99.90;;;;;;5092599;28;20588;-65
2022/07/07 12:23:29;;;;;;;5.70;4.77;;;8.30;99.90;;;;;;5092409;28;20665;-65
2022/07/07 12:26:08;;;;;;;5.23;4.57;;;8.20;99.90;;;;;;5092465;28;20535;-67
2022/07/07 12:28:37;;;;;;;6.17;4.67;;;8.20;99.90;;;;;;5092549;28;20190;-65
2022/07/07 12:31:06;;;;;;;5.37;3.90;;;8.10;99.90;;;;;;5092534;28;20200;-65
2022/07/07 12:33:39;;;;;;;5.93;3.60;;;8.10;99.90;;;;;;5084779;28;20214;-67
2022/07/07 12:36:13;;;;;;;5.20;3.20;;;8.10;99.90;;;;;;5072550;28;20262;-66
2022/07/07 12:38:49;;;;;;;5.07;4.03;;;8.00;99.90;;;;;;5071430;28;20190;-66
2022/07/07 12:41:24;;;;;;;4.03;2.90;;;8.00;99.90;;;;;;5071014;28;20182;-64
2022/07/07 12:43:53;;;;;;;5.70;3.30;;;8.00;99.90;;;;;;5090383;28;20191;-65
2022/07/07 12:46:21;;;;;;;3.27;2.63;;;7.90;99.90;;;;;;5092312;28;20802;-64
2022/07/07 12:48:53;;;;;;;5.90;3.00;;;7.90;99.90;;;;;;5092220;28;20196;-64
2022/07/07 12:51:30;;;;;;;4.10;3.13;;;7.90;99.90;;;;;;5092020;28;20644;-64
2022/07/07 12:53:59;;;;;;;5.00;2.60;;;7.90;99.90;;;;;;5091864;28;20186;-63
2022/07/07 12:56:39;;;;;;;4.67;2.90;;;7.80;99.90;;;;;;5091895;28;20190;-66
2022/07/07 12:59:21;;;;;;;4.40;2.97;;;7.80;99.90;;;;;;5091932;28;20281;-64